createdAt,value
2024-04-01T00:00:39.252Z,103.00
2024-04-01T00:01:41.073Z,103.00
2024-04-01T00:02:43.063Z,103.83
2024-04-01T00:03:45.905Z,104.00
2024-04-01T00:04:47.706Z,104.00
2024-04-01T00:05:53.240Z,104.67
2024-04-01T00:06:54.812Z,105.00
2024-04-01T00:07:57.684Z,105.83
2024-04-01T00:08:59.331Z,108.50
2024-04-01T00:10:01.020Z,109.00
2024-04-01T00:11:03.020Z,109.00
2024-04-01T00:12:06.437Z,109.00
2024-04-01T00:13:30.634Z,109.50
2024-04-01T00:14:34.396Z,111.17
2024-04-01T00:15:36.610Z,114.50
2024-04-01T00:16:39.644Z,115.00
2024-04-01T00:17:41.041Z,114.33
2024-04-01T00:18:42.506Z,114.17
2024-04-01T00:19:43.853Z,115.50
2024-04-01T00:20:56.629Z,117.67
2024-04-01T00:21:59.767Z,119.67
2024-04-01T00:23:03.788Z,119.67
2024-04-01T00:24:05.843Z,118.67
2024-04-01T00:25:15.589Z,116.50
2024-04-01T00:26:16.960Z,114.00
2024-04-01T00:27:19.797Z,111.33
2024-04-01T00:28:21.978Z,108.50
2024-04-01T00:29:25.116Z,105.17
2024-04-01T00:30:32.392Z,102.83
2024-04-01T00:31:37.273Z,99.00
2024-04-01T00:32:56.508Z,96.50
2024-04-01T00:34:06.034Z,93.33
2024-04-01T00:35:14.678Z,91.33
2024-04-01T00:36:18.804Z,88.50
2024-04-01T00:37:23.864Z,88.00
2024-04-01T00:38:25.411Z,88.50
2024-04-01T00:39:26.987Z,89.00
2024-04-01T00:40:28.674Z,89.50
2024-04-01T00:41:31.314Z,89.33
2024-04-01T00:42:33.721Z,88.67
2024-04-01T00:43:35.508Z,87.67
2024-04-01T00:44:37.198Z,86.83
2024-04-01T00:45:44.574Z,85.17
2024-04-01T00:46:46.392Z,81.83
2024-04-01T00:47:48.474Z,81.00
2024-04-01T00:48:52.840Z,80.17
2024-04-01T00:49:55.872Z,80.00
2024-04-01T00:51:10.859Z,80.00
2024-04-01T00:52:13.775Z,79.00
2024-04-01T00:53:20.260Z,78.33
2024-04-01T00:54:22.540Z,78.50
2024-04-01T00:55:24.752Z,79.00
2024-04-01T00:56:29.206Z,78.67
2024-04-01T00:57:46.258Z,78.67
2024-04-01T00:58:48.007Z,78.00
2024-04-01T00:59:54.082Z,77.33
2024-04-01T01:00:58.966Z,77.00
2024-04-01T01:02:03.031Z,76.67
2024-04-01T01:03:07.233Z,76.00
2024-04-01T01:04:08.938Z,76.00
2024-04-01T01:05:15.804Z,76.00
2024-04-01T01:06:18.675Z,76.00
2024-04-01T01:07:21.275Z,76.83
2024-04-01T01:08:24.879Z,77.00
2024-04-01T01:09:41.293Z,77.00
2024-04-01T01:10:43.256Z,77.00
2024-04-01T01:11:45.170Z,77.67
2024-04-01T01:12:47.009Z,78.83
2024-04-01T01:13:49.452Z,80.17
2024-04-01T01:14:51.325Z,82.33
2024-04-01T01:15:53.074Z,86.67
2024-04-01T01:16:56.438Z,92.83
2024-04-01T01:17:59.756Z,96.67
2024-04-01T01:19:01.376Z,98.67
2024-04-01T01:20:03.768Z,99.33
2024-04-01T01:21:05.633Z,97.67
2024-04-01T01:22:09.571Z,97.00
2024-04-01T01:23:12.441Z,95.83
2024-04-01T01:24:14.202Z,94.50
2024-04-01T01:25:15.582Z,92.83
2024-04-01T01:26:18.514Z,90.67
2024-04-01T01:27:20.088Z,85.50
2024-04-01T01:28:37.024Z,78.33
2024-04-01T01:29:38.746Z,74.33
2024-04-01T01:30:41.592Z,72.50
2024-04-01T01:31:43.470Z,71.17
2024-04-01T01:32:47.886Z,71.00
2024-04-01T01:33:49.968Z,70.00
2024-04-01T01:34:54.678Z,67.50
2024-04-01T01:35:57.460Z,65.00
2024-04-01T01:36:59.140Z,63.83
2024-04-01T01:38:00.924Z,63.33
2024-04-01T01:39:05.913Z,64.00
2024-04-01T01:40:08.817Z,64.00
2024-04-01T01:41:10.688Z,64.00
2024-04-01T01:42:12.551Z,64.00
2024-04-01T01:43:15.376Z,64.00
2024-04-01T01:44:16.979Z,64.00
2024-04-01T01:45:18.649Z,63.00
2024-04-01T01:46:20.369Z,63.00
2024-04-01T01:47:22.786Z,63.00
2024-04-01T01:48:24.500Z,63.00
2024-04-01T01:49:25.974Z,63.17
2024-04-01T01:50:29.473Z,64.00
2024-04-01T01:51:31.382Z,64.00
2024-04-01T01:52:34.112Z,64.00
2024-04-01T01:53:36.566Z,64.00
2024-04-01T01:54:39.552Z,64.00
2024-04-01T01:55:40.929Z,64.67
2024-04-01T01:56:57.388Z,64.83
2024-04-01T01:57:59.839Z,64.67
2024-04-01T01:59:02.844Z,65.00
2024-04-01T02:00:05.909Z,65.00
2024-04-01T02:01:07.620Z,65.33
2024-04-01T02:02:11.082Z,66.00
2024-04-01T02:03:14.844Z,66.00
2024-04-01T02:04:17.812Z,66.00
2024-04-01T02:05:19.390Z,66.00
2024-04-01T02:06:22.737Z,65.50
2024-04-01T02:07:24.152Z,65.00
2024-04-01T02:08:25.785Z,65.00
2024-04-01T02:09:27.394Z,65.00
2024-04-01T02:10:36.079Z,64.33
2024-04-01T02:11:37.602Z,64.83
2024-04-01T02:12:53.153Z,65.00
2024-04-01T02:13:54.955Z,65.00
2024-04-01T02:14:57.671Z,65.00
2024-04-01T02:16:07.166Z,66.00
2024-04-01T02:17:08.869Z,66.00
2024-04-01T02:18:11.773Z,66.17
2024-04-01T02:19:13.728Z,67.00
2024-04-01T02:20:16.157Z,67.50
2024-04-01T02:21:18.702Z,68.17
2024-04-01T02:22:22.871Z,69.33
2024-04-01T02:23:29.613Z,70.00
2024-04-01T02:24:31.339Z,71.00
2024-04-01T02:25:34.396Z,71.00
2024-04-01T02:26:51.199Z,71.00
2024-04-01T02:27:53.803Z,71.50
2024-04-01T02:28:55.660Z,72.67
2024-04-01T02:29:57.217Z,74.17
2024-04-01T02:30:59.713Z,75.50
2024-04-01T02:32:02.749Z,76.00
2024-04-01T02:33:04.680Z,76.00
2024-04-01T02:34:06.788Z,76.00
2024-04-01T02:35:09.250Z,76.00
2024-04-01T02:36:11.012Z,77.00
2024-04-01T02:37:12.463Z,77.00
2024-04-01T02:38:14.312Z,77.00
2024-04-01T02:39:17.866Z,77.00
2024-04-01T02:40:19.545Z,76.50
2024-04-01T02:41:22.557Z,76.00
2024-04-01T02:42:25.708Z,76.00
2024-04-01T02:43:27.035Z,76.00
2024-04-01T02:44:28.429Z,76.00
2024-04-01T02:45:30.448Z,76.00
2024-04-01T02:46:33.456Z,76.00
2024-04-01T02:47:35.097Z,76.00
2024-04-01T02:48:36.951Z,76.00
2024-04-01T02:49:39.371Z,76.00
2024-04-01T02:50:42.552Z,76.00
2024-04-01T02:51:44.538Z,76.00
2024-04-01T02:52:48.162Z,76.00
2024-04-01T02:53:51.129Z,76.00
2024-04-01T02:54:52.685Z,75.33
2024-04-01T02:55:55.065Z,75.00
2024-04-01T02:56:58.377Z,74.67
2024-04-01T02:58:01.413Z,74.00
2024-04-01T02:59:04.297Z,73.50
2024-04-01T03:00:08.153Z,73.00
2024-04-01T03:01:10.552Z,73.00
2024-04-01T03:02:13.774Z,73.00
2024-04-01T03:03:15.434Z,73.00
2024-04-01T03:04:20.160Z,72.50
2024-04-01T03:05:22.517Z,72.00
2024-04-01T03:06:25.336Z,72.00
2024-04-01T03:07:26.923Z,72.00
2024-04-01T03:08:28.711Z,72.00
2024-04-01T03:09:30.459Z,71.83
2024-04-01T03:10:33.437Z,72.67
2024-04-01T03:11:34.786Z,77.50
2024-04-01T03:12:37.916Z,78.83
2024-04-01T03:13:39.224Z,77.67
2024-04-01T03:14:41.834Z,76.33
2024-04-01T03:15:45.274Z,75.17
2024-04-01T03:16:47.101Z,74.50
2024-04-01T03:17:48.657Z,74.00
2024-04-01T03:18:51.424Z,73.50
2024-04-01T03:19:53.013Z,71.67
2024-04-01T03:20:54.575Z,71.00
2024-04-01T03:21:56.403Z,70.83
2024-04-01T03:22:59.002Z,70.00
2024-04-01T03:24:00.727Z,70.00
2024-04-01T03:25:02.564Z,69.17
2024-04-01T03:26:06.450Z,69.00
2024-04-01T03:27:08.124Z,69.00
2024-04-01T03:28:11.840Z,69.00
2024-04-01T03:29:13.723Z,69.00
2024-04-01T03:30:16.448Z,69.00
2024-04-01T03:31:18.195Z,68.17
2024-04-01T03:32:20.452Z,68.00
2024-04-01T03:33:22.580Z,67.67
2024-04-01T03:34:25.336Z,67.00
2024-04-01T03:35:27.511Z,67.00
2024-04-01T03:36:30.819Z,67.00
2024-04-01T03:37:33.245Z,67.00
2024-04-01T03:38:35.126Z,67.00
2024-04-01T03:39:37.381Z,67.00
2024-04-01T03:40:40.327Z,67.00
2024-04-01T03:41:42.052Z,67.00
2024-04-01T03:42:44.775Z,67.00
2024-04-01T03:43:48.064Z,67.00
2024-04-01T03:44:53.475Z,67.00
2024-04-01T03:45:58.517Z,66.67
2024-04-01T03:47:00.502Z,66.00
2024-04-01T03:48:02.723Z,66.00
2024-04-01T03:49:05.355Z,66.00
2024-04-01T03:50:08.178Z,65.67
2024-04-01T03:51:09.818Z,65.00
2024-04-01T03:52:11.556Z,65.00
2024-04-01T03:53:26.322Z,65.00
2024-04-01T03:54:28.762Z,65.00
2024-04-01T03:55:31.212Z,64.83
2024-04-01T03:56:34.136Z,64.00
2024-04-01T03:57:35.714Z,64.00
2024-04-01T03:58:37.502Z,64.00
2024-04-01T03:59:42.812Z,64.00
2024-04-01T04:00:44.746Z,64.00
2024-04-01T04:01:46.636Z,64.00
2024-04-01T04:02:48.134Z,64.00
2024-04-01T04:03:52.693Z,64.00
2024-04-01T04:04:54.041Z,64.83
2024-04-01T04:05:55.469Z,65.00
2024-04-01T04:06:57.327Z,65.83
2024-04-01T04:07:59.799Z,66.00
2024-04-01T04:09:02.177Z,66.00
2024-04-01T04:10:04.596Z,65.50
2024-04-01T04:11:07.540Z,65.00
2024-04-01T04:12:11.236Z,65.00
2024-04-01T04:13:15.124Z,64.00
2024-04-01T04:14:18.449Z,64.00
2024-04-01T04:15:22.621Z,64.00
2024-04-01T04:16:25.463Z,64.00
2024-04-01T04:17:27.318Z,64.00
2024-04-01T04:18:29.563Z,64.00
2024-04-01T04:19:31.227Z,64.00
2024-04-01T04:20:36.059Z,63.67
2024-04-01T04:21:38.415Z,63.00
2024-04-01T04:22:40.160Z,63.00
2024-04-01T04:23:41.666Z,63.00
2024-04-01T04:24:44.651Z,62.00
2024-04-01T04:25:46.248Z,62.00
2024-04-01T04:26:49.055Z,61.67
2024-04-01T04:27:53.575Z,59.83
2024-04-01T04:28:57.190Z,56.67
2024-04-01T04:29:59.705Z,53.50
2024-04-01T04:31:03.656Z,49.83
2024-04-01T04:32:11.343Z,47.67
2024-04-01T04:33:13.092Z,47.00
2024-04-01T04:34:15.194Z,47.00
2024-04-01T04:35:17.772Z,47.00
2024-04-01T04:36:21.129Z,46.17
2024-04-01T04:37:22.919Z,45.17
2024-04-01T04:38:26.097Z,43.67
2024-04-01T04:39:27.817Z,43.00
2024-04-01T04:40:31.226Z,43.00
2024-04-01T04:41:32.970Z,43.00
2024-04-01T04:42:34.580Z,43.00
2024-04-01T04:43:36.212Z,43.00
2024-04-01T04:44:39.149Z,43.00
2024-04-01T04:45:48.237Z,43.83
2024-04-01T04:46:51.439Z,44.00
2024-04-01T04:47:55.063Z,44.00
2024-04-01T04:48:56.841Z,44.00
2024-04-01T04:50:01.369Z,44.00
2024-04-01T04:51:05.152Z,44.00
2024-04-01T04:52:08.165Z,44.33
2024-04-01T04:53:10.422Z,45.00
2024-04-01T04:54:12.364Z,45.00
2024-04-01T04:55:15.435Z,45.00
2024-04-01T04:56:16.967Z,45.00
2024-04-01T04:57:18.861Z,45.83
2024-04-01T04:58:20.897Z,46.00
2024-04-01T04:59:23.640Z,46.00
2024-04-01T05:00:25.459Z,46.50
2024-04-01T05:01:27.316Z,47.00
2024-04-01T05:02:31.689Z,47.00
2024-04-01T05:03:34.438Z,47.00
2024-04-01T05:04:36.437Z,47.00
2024-04-01T05:05:38.209Z,47.00
2024-04-01T05:06:42.648Z,47.00
2024-04-01T05:07:45.567Z,47.00
2024-04-01T05:08:47.028Z,47.00
2024-04-01T05:09:49.776Z,46.00
2024-04-01T05:10:51.848Z,46.00
2024-04-01T05:11:54.242Z,45.17
2024-04-01T05:12:55.976Z,45.00
2024-04-01T05:14:01.714Z,44.50
2024-04-01T05:15:05.836Z,43.83
2024-04-01T05:16:07.973Z,43.00
2024-04-01T05:17:09.381Z,42.67
2024-04-01T05:18:15.574Z,42.00
2024-04-01T05:19:17.407Z,42.00
2024-04-01T05:20:19.173Z,42.00
2024-04-01T05:21:20.838Z,42.00
2024-04-01T05:22:22.764Z,41.17
2024-04-01T05:23:26.061Z,41.00
2024-04-01T05:24:27.800Z,41.00
2024-04-01T05:25:29.713Z,41.00
2024-04-01T05:26:32.326Z,41.00
2024-04-01T05:27:35.331Z,41.00
2024-04-01T05:28:37.084Z,41.00
2024-04-01T05:29:39.070Z,41.00
2024-04-01T05:30:41.594Z,41.00
2024-04-01T05:31:43.435Z,40.33
2024-04-01T05:32:45.200Z,41.00
2024-04-01T05:33:49.459Z,41.00
2024-04-01T05:34:51.464Z,41.00
2024-04-01T05:35:53.198Z,41.00
2024-04-01T05:36:57.488Z,41.00
2024-04-01T05:38:00.490Z,41.00
2024-04-01T05:39:03.799Z,41.33
2024-04-01T05:40:06.269Z,42.00
2024-04-01T05:41:07.837Z,42.00
2024-04-01T05:42:10.530Z,43.00
2024-04-01T05:43:12.326Z,43.17
2024-04-01T05:44:15.030Z,44.50
2024-04-01T05:45:17.421Z,45.00
2024-04-01T05:46:20.448Z,45.00
2024-04-01T05:47:22.180Z,45.00
2024-04-01T05:48:23.855Z,45.00
2024-04-01T05:49:26.803Z,45.00
2024-04-01T05:50:29.532Z,45.00
2024-04-01T05:51:31.084Z,45.00
2024-04-01T05:52:32.790Z,45.00
2024-04-01T05:53:34.478Z,45.00
2024-04-01T05:54:37.497Z,45.00
2024-04-01T05:55:40.246Z,45.00
2024-04-01T05:56:41.717Z,45.33
2024-04-01T05:57:44.397Z,46.00
2024-04-01T05:58:46.235Z,46.00
2024-04-01T05:59:48.402Z,46.00
2024-04-01T06:00:51.186Z,45.00
2024-04-01T06:01:53.210Z,45.00
2024-04-01T06:02:55.238Z,45.00
2024-04-01T06:03:58.063Z,45.00
2024-04-01T06:05:01.141Z,45.83
2024-04-01T06:06:03.129Z,46.00
2024-04-01T06:07:05.621Z,46.00
2024-04-01T06:08:07.570Z,47.00
2024-04-01T06:09:09.763Z,47.00
2024-04-01T06:10:13.452Z,47.00
2024-04-01T06:11:15.170Z,47.33
2024-04-01T06:12:16.802Z,49.00
2024-04-01T06:13:19.758Z,50.17
2024-04-01T06:14:21.155Z,51.00
2024-04-01T06:15:22.907Z,51.17
2024-04-01T06:16:24.834Z,53.00
2024-04-01T06:17:27.657Z,54.83
2024-04-01T06:18:29.123Z,55.67
2024-04-01T06:19:30.611Z,56.50
2024-04-01T06:20:33.990Z,57.00
2024-04-01T06:21:36.679Z,56.67
2024-04-01T06:22:38.371Z,56.00
2024-04-01T06:23:40.115Z,57.00
2024-04-01T06:24:42.953Z,59.17
2024-04-01T06:25:44.844Z,60.17
2024-04-01T06:26:46.695Z,61.00
2024-04-01T06:27:48.545Z,61.00
2024-04-01T06:28:51.528Z,62.00
2024-04-01T06:29:53.276Z,62.00
2024-04-01T06:30:54.944Z,62.00
2024-04-01T06:31:56.688Z,62.50
2024-04-01T06:32:59.543Z,63.67
2024-04-01T06:34:01.355Z,64.67
2024-04-01T06:35:03.514Z,67.83
2024-04-01T06:36:08.573Z,71.83
2024-04-01T06:37:10.004Z,75.00
2024-04-01T06:38:12.578Z,74.00
2024-04-01T06:39:15.569Z,73.00
2024-04-01T06:40:18.467Z,72.33
2024-04-01T06:41:20.259Z,72.00
2024-04-01T06:42:25.212Z,73.50
2024-04-01T06:43:27.932Z,76.17
2024-04-01T06:44:30.431Z,75.33
2024-04-01T06:45:31.956Z,75.00
2024-04-01T06:46:34.743Z,75.00
2024-04-01T06:47:36.662Z,75.00
2024-04-01T06:48:38.499Z,74.50
2024-04-01T06:49:41.493Z,74.50
2024-04-01T06:50:43.105Z,74.00
2024-04-01T06:51:46.084Z,74.17
2024-04-01T06:52:47.735Z,75.33
2024-04-01T06:53:50.749Z,76.33
2024-04-01T06:54:52.797Z,77.00
2024-04-01T06:55:54.734Z,77.00
2024-04-01T06:56:57.800Z,76.67
2024-04-01T06:58:00.638Z,77.67
2024-04-01T06:59:02.724Z,78.67
2024-04-01T07:00:05.557Z,79.50
2024-04-01T07:01:09.618Z,82.33
2024-04-01T07:02:11.881Z,82.83
2024-04-01T07:03:14.057Z,82.00
2024-04-01T07:04:17.122Z,82.00
2024-04-01T07:05:18.763Z,81.33
2024-04-01T07:06:20.610Z,81.00
2024-04-01T07:07:27.929Z,80.67
2024-04-01T07:08:30.188Z,80.00
2024-04-01T07:09:32.516Z,78.83
2024-04-01T07:10:34.535Z,78.33
2024-04-01T07:11:37.822Z,79.83
2024-04-01T07:12:39.560Z,80.00
2024-04-01T07:13:41.667Z,80.67
2024-04-01T07:14:43.898Z,81.83
2024-04-01T07:15:46.334Z,81.00
2024-04-01T07:16:49.421Z,81.33
2024-04-01T07:17:51.794Z,82.67
2024-04-01T07:18:53.269Z,83.83
2024-04-01T07:19:55.139Z,84.00
2024-04-01T07:20:58.480Z,84.17
2024-04-01T07:21:59.995Z,84.67
2024-04-01T07:23:03.263Z,84.83
2024-04-01T07:24:06.675Z,85.17
2024-04-01T07:25:08.219Z,86.00
2024-04-01T07:26:10.140Z,86.50
2024-04-01T07:27:12.485Z,93.67
2024-04-01T07:28:15.325Z,95.33
2024-04-01T07:29:17.102Z,94.67
2024-04-01T07:30:18.914Z,94.00
2024-04-01T07:31:21.024Z,94.00
2024-04-01T07:32:24.068Z,93.83
2024-04-01T07:33:26.031Z,93.00
2024-04-01T07:34:27.657Z,93.00
2024-04-01T07:35:52.124Z,93.33
2024-04-01T07:36:54.102Z,95.33
2024-04-01T07:37:55.852Z,96.50
2024-04-01T07:39:00.036Z,97.00
2024-04-01T07:40:01.591Z,96.33
2024-04-01T07:41:03.474Z,97.50
2024-04-01T07:42:07.052Z,100.17
2024-04-01T07:43:08.855Z,109.83
2024-04-01T07:44:10.589Z,113.17
2024-04-01T07:45:12.468Z,143.83
2024-04-01T07:46:15.071Z,237.50
2024-04-01T07:47:17.242Z,150.33
2024-04-01T07:48:19.031Z,140.67
2024-04-01T07:49:22.368Z,145.83
2024-04-01T07:50:23.920Z,139.67
2024-04-01T07:51:25.445Z,135.83
2024-04-01T07:52:43.326Z,123.83
2024-04-01T07:53:44.778Z,104.50
2024-04-01T07:54:48.093Z,104.50
2024-04-01T07:55:50.728Z,107.83
2024-04-01T07:56:52.307Z,110.00
2024-04-01T07:57:54.090Z,111.33
2024-04-01T07:58:57.221Z,112.00
2024-04-01T08:00:03.407Z,115.17
2024-04-01T08:01:05.988Z,124.33
2024-04-01T08:02:07.739Z,123.33
2024-04-01T08:03:09.514Z,122.17
2024-04-01T08:04:14.135Z,124.33
2024-04-01T08:05:16.104Z,126.00
2024-04-01T08:06:17.874Z,125.83
2024-04-01T08:07:20.066Z,127.50
2024-04-01T08:08:22.486Z,128.00
2024-04-01T08:09:24.287Z,127.50
2024-04-01T08:10:46.247Z,126.67
2024-04-01T08:11:49.384Z,125.67
2024-04-01T08:12:51.040Z,127.67
2024-04-01T08:13:53.576Z,129.33
2024-04-01T08:14:55.124Z,132.00
2024-04-01T08:16:02.171Z,139.33
2024-04-01T08:17:04.403Z,147.33
2024-04-01T08:18:06.363Z,145.00
2024-04-01T08:19:07.830Z,142.50
2024-04-01T08:20:10.666Z,144.00
2024-04-01T08:21:12.113Z,148.50
2024-04-01T08:22:13.879Z,150.50
2024-04-01T08:23:15.399Z,150.00
2024-04-01T08:24:18.361Z,147.67
2024-04-01T08:25:20.020Z,147.50
2024-04-01T08:26:23.242Z,147.17
2024-04-01T08:27:25.057Z,146.33
2024-04-01T08:28:32.852Z,135.17
2024-04-01T08:29:34.720Z,129.00
2024-04-01T08:30:36.670Z,127.67
2024-04-01T08:31:39.398Z,125.33
2024-04-01T08:32:40.847Z,127.00
2024-04-01T08:33:42.695Z,128.00
2024-04-01T08:34:44.191Z,128.67
2024-04-01T08:35:46.865Z,128.67
2024-04-01T08:36:48.575Z,125.00
2024-04-01T08:37:50.338Z,121.00
2024-04-01T08:38:52.086Z,121.50
2024-04-01T08:39:55.287Z,124.83
2024-04-01T08:40:58.475Z,131.83
2024-04-01T08:42:04.344Z,132.17
2024-04-01T08:43:13.866Z,133.00
2024-04-01T08:44:31.219Z,132.00
2024-04-01T08:45:34.959Z,134.17
2024-04-01T08:46:40.446Z,146.33
2024-04-01T08:47:45.660Z,146.50
2024-04-01T08:48:51.287Z,145.00
2024-04-01T08:50:04.931Z,147.50
2024-04-01T08:51:07.622Z,155.83
2024-04-01T08:52:22.248Z,161.50
2024-04-01T08:53:38.438Z,157.00
2024-04-01T08:54:41.047Z,155.00
2024-04-01T08:55:43.995Z,153.50
2024-04-01T08:56:45.571Z,153.67
2024-04-01T08:57:49.747Z,154.17
2024-04-01T08:58:53.509Z,154.00
2024-04-01T08:59:57.035Z,152.67
2024-04-01T09:00:59.046Z,150.50
2024-04-01T09:02:02.175Z,141.33
2024-04-01T09:03:05.179Z,136.67
2024-04-01T09:04:06.860Z,138.00
2024-04-01T09:05:08.628Z,138.00
2024-04-01T09:06:11.602Z,135.50
2024-04-01T09:07:14.640Z,133.17
2024-04-01T09:08:16.747Z,134.67
2024-04-01T09:09:18.812Z,134.67
2024-04-01T09:10:22.498Z,135.00
2024-04-01T09:11:25.742Z,135.33
2024-04-01T09:12:27.722Z,139.83
2024-04-01T09:13:33.278Z,146.50
2024-04-01T09:14:36.037Z,146.83
2024-04-01T09:15:37.640Z,146.00
2024-04-01T09:16:40.820Z,146.00
2024-04-01T09:17:43.750Z,149.83
2024-04-01T09:18:45.587Z,154.83
2024-04-01T09:19:47.028Z,162.50
2024-04-01T09:20:49.314Z,173.00
2024-04-01T09:21:52.249Z,164.33
2024-04-01T09:22:53.974Z,163.00
2024-04-01T09:23:57.114Z,162.00
2024-04-01T09:25:00.215Z,162.83
2024-04-01T09:26:03.503Z,171.17
2024-04-01T09:27:05.381Z,173.33
2024-04-01T09:28:07.361Z,172.33
2024-04-01T09:29:11.639Z,175.83
2024-04-01T09:30:13.416Z,172.83
2024-04-01T09:31:15.548Z,170.50
2024-04-01T09:32:17.817Z,167.83
2024-04-01T09:33:21.149Z,159.17
2024-04-01T09:34:22.974Z,156.33
2024-04-01T09:35:25.947Z,154.83
2024-04-01T09:36:29.083Z,155.00
2024-04-01T09:37:31.676Z,157.50
2024-04-01T09:38:34.346Z,158.67
2024-04-01T09:39:36.765Z,161.00
2024-04-01T09:40:38.855Z,162.00
2024-04-01T09:41:42.673Z,163.17
2024-04-01T09:42:45.559Z,166.00
2024-04-01T09:43:51.882Z,170.17
2024-04-01T09:44:56.538Z,172.33
2024-04-01T09:46:02.799Z,174.67
2024-04-01T09:47:06.608Z,172.33
2024-04-01T09:48:09.511Z,166.83
2024-04-01T09:49:28.865Z,164.00
2024-04-01T09:50:33.332Z,165.00
2024-04-01T09:51:35.023Z,184.00
2024-04-01T09:52:37.210Z,185.00
2024-04-01T09:53:39.810Z,169.83
2024-04-01T09:54:41.393Z,162.67
2024-04-01T09:56:12.092Z,160.00
2024-04-01T09:57:55.927Z,157.00
2024-04-01T09:59:25.568Z,155.67
2024-04-01T10:00:39.671Z,160.83
2024-04-01T10:02:02.257Z,165.33
2024-04-01T10:03:39.461Z,178.00
2024-04-01T10:05:21.322Z,189.83
2024-04-01T10:07:10.641Z,187.67
2024-04-01T10:08:40.148Z,185.67
2024-04-01T10:10:17.264Z,180.83
2024-04-01T10:11:38.427Z,175.50
2024-04-01T10:13:22.708Z,179.00
2024-04-01T10:14:54.121Z,179.17
2024-04-01T10:16:17.073Z,178.17
2024-04-01T10:17:59.523Z,178.17
2024-04-01T10:19:42.255Z,171.00
2024-04-01T10:21:20.371Z,170.00
2024-04-01T10:22:49.219Z,169.50
2024-04-01T10:24:30.443Z,164.50
2024-04-01T10:26:13.421Z,171.33
2024-04-01T10:27:44.551Z,175.33
2024-04-01T10:29:50.216Z,191.17
2024-04-01T10:31:32.958Z,191.17
2024-04-01T10:33:14.307Z,188.17
2024-04-01T10:35:04.294Z,188.33
2024-04-01T10:36:26.851Z,165.83
2024-04-01T10:38:08.848Z,164.83
2024-04-01T10:39:50.080Z,172.83
2024-04-01T10:41:20.219Z,175.33
2024-04-01T10:43:06.965Z,176.67
2024-04-01T10:44:42.932Z,192.83
2024-04-01T10:46:17.247Z,189.33
2024-04-01T10:47:54.397Z,188.17
2024-04-01T10:49:23.456Z,186.33
2024-04-01T10:50:53.754Z,202.00
2024-04-01T10:52:31.144Z,219.33
2024-04-01T10:53:57.024Z,213.83
2024-04-01T10:55:20.043Z,212.00
2024-04-01T10:57:20.867Z,215.00
2024-04-01T10:58:51.412Z,204.17
2024-04-01T11:00:38.003Z,178.50
2024-04-01T11:02:00.310Z,174.17
2024-04-01T11:04:03.514Z,178.33
2024-04-01T11:05:28.005Z,176.33
2024-04-01T11:07:03.333Z,193.00
2024-04-01T11:08:20.165Z,198.83
2024-04-01T11:09:38.243Z,198.67
2024-04-01T11:10:48.636Z,195.50
2024-04-01T11:12:02.622Z,196.67
2024-04-01T11:13:07.074Z,191.33
2024-04-01T11:14:10.635Z,182.00
2024-04-01T11:15:15.150Z,181.17
2024-04-01T11:16:20.059Z,195.50
2024-04-01T11:17:25.005Z,203.50
2024-04-01T11:18:45.342Z,203.67
2024-04-01T11:20:21.341Z,201.50
2024-04-01T11:21:31.872Z,208.17
2024-04-01T11:22:50.778Z,214.17
2024-04-01T11:24:01.315Z,207.17
2024-04-01T11:25:14.096Z,177.50
2024-04-01T11:26:40.523Z,168.17
2024-04-01T11:28:18.399Z,173.00
2024-04-01T11:29:47.687Z,175.83
2024-04-01T11:31:04.332Z,180.83
2024-04-01T11:32:12.688Z,185.67
2024-04-01T11:33:18.839Z,201.67
2024-04-01T11:34:31.458Z,206.50
2024-04-01T11:35:46.073Z,202.83
2024-04-01T11:37:05.103Z,202.83
2024-04-01T11:38:23.980Z,203.67
2024-04-01T11:39:29.770Z,208.17
2024-04-01T11:40:35.568Z,206.17
2024-04-01T11:41:45.412Z,204.33
2024-04-01T11:42:55.255Z,203.00
2024-04-01T11:43:58.749Z,205.50
2024-04-01T11:45:06.957Z,209.83
2024-04-01T11:46:11.928Z,207.83
2024-04-01T11:47:17.367Z,206.67
2024-04-01T11:48:23.079Z,209.67
2024-04-01T11:49:39.579Z,219.83
2024-04-01T11:50:50.437Z,219.83
2024-04-01T11:51:53.458Z,242.00
2024-04-01T11:52:58.510Z,252.00
2024-04-01T11:54:00.401Z,237.67
2024-04-01T11:55:12.802Z,233.17
2024-04-01T11:56:14.451Z,231.00
2024-04-01T11:57:23.386Z,238.17
2024-04-01T11:58:27.739Z,240.50
2024-04-01T11:59:31.979Z,230.83
2024-04-01T12:00:52.033Z,215.83
2024-04-01T12:01:55.138Z,200.50
2024-04-01T12:02:58.549Z,198.17
2024-04-01T12:04:01.787Z,204.00
2024-04-01T12:05:05.813Z,209.00
2024-04-01T12:06:14.332Z,207.17
2024-04-01T12:07:16.011Z,206.00
2024-04-01T12:08:20.715Z,245.83
2024-04-01T12:09:23.751Z,227.50
2024-04-01T12:10:28.065Z,211.67
2024-04-01T12:11:32.243Z,211.67
2024-04-01T12:12:34.676Z,215.67
2024-04-01T12:13:41.491Z,218.50
2024-04-01T12:14:43.618Z,219.33
2024-04-01T12:15:45.612Z,220.67
2024-04-01T12:16:47.543Z,216.33
2024-04-01T12:17:50.823Z,203.33
2024-04-01T12:18:52.865Z,191.00
2024-04-01T12:19:57.973Z,178.50
2024-04-01T12:21:02.659Z,186.50
2024-04-01T12:22:05.072Z,190.50
2024-04-01T12:23:08.568Z,189.50
2024-04-01T12:24:11.990Z,190.17
2024-04-01T12:25:15.842Z,182.33
2024-04-01T12:26:18.748Z,177.50
2024-04-01T12:27:22.046Z,178.67
2024-04-01T12:28:27.944Z,180.67
2024-04-01T12:29:31.899Z,182.67
2024-04-01T12:30:38.080Z,183.33
2024-04-01T12:31:46.165Z,184.00
2024-04-01T12:32:50.210Z,178.83
2024-04-01T12:33:53.197Z,166.67
2024-04-01T12:34:55.862Z,154.67
2024-04-01T12:35:58.939Z,151.17
2024-04-01T12:37:04.477Z,157.00
2024-04-01T12:38:13.394Z,161.67
2024-04-01T12:39:16.372Z,164.67
2024-04-01T12:40:19.623Z,169.33
2024-04-01T12:41:22.541Z,176.00
2024-04-01T12:42:40.102Z,178.67
2024-04-01T12:43:42.028Z,180.83
2024-04-01T12:44:44.892Z,173.33
2024-04-01T12:45:47.710Z,164.00
2024-04-01T12:46:50.103Z,156.33
2024-04-01T12:47:53.194Z,158.83
2024-04-01T12:48:55.900Z,159.67
2024-04-01T12:50:02.794Z,163.00
2024-04-01T12:51:06.425Z,168.83
2024-04-01T12:52:15.244Z,170.50
2024-04-01T12:53:46.385Z,174.17
2024-04-01T12:55:08.859Z,183.67
2024-04-01T12:56:27.709Z,201.17
2024-04-01T12:57:51.430Z,203.17
2024-04-01T12:59:11.092Z,207.17
2024-04-01T13:00:35.192Z,198.67
2024-04-01T13:01:55.294Z,195.50
2024-04-01T13:03:22.415Z,193.00
2024-04-01T13:04:44.883Z,184.50
2024-04-01T13:05:55.012Z,183.83
2024-04-01T13:08:55.748Z,184.00
2024-04-01T13:10:03.632Z,183.83
2024-04-01T13:11:23.422Z,178.00
2024-04-01T13:12:45.393Z,176.00
2024-04-01T13:14:05.507Z,176.67
2024-04-01T13:15:16.836Z,177.00
2024-04-01T13:16:28.442Z,177.00
2024-04-01T13:17:45.549Z,176.83
2024-04-01T13:18:57.640Z,176.00
2024-04-01T13:20:06.251Z,163.67
2024-04-01T13:21:19.422Z,156.17
2024-04-01T13:22:32.942Z,149.33
2024-04-01T13:23:39.156Z,145.67
2024-04-01T13:24:50.128Z,141.33
2024-04-01T13:26:00.594Z,147.17
2024-04-01T13:27:12.358Z,150.17
2024-04-01T13:28:23.648Z,152.33
2024-04-01T13:29:36.351Z,154.50
2024-04-01T13:30:57.643Z,152.83
2024-04-01T13:32:13.782Z,146.00
2024-04-01T13:33:31.256Z,141.33
2024-04-01T13:34:46.680Z,144.67
2024-04-01T13:36:04.500Z,142.00
2024-04-01T13:37:23.859Z,133.33
2024-04-01T13:38:40.119Z,135.67
2024-04-01T13:40:00.256Z,138.67
2024-04-01T13:41:15.685Z,139.83
2024-04-01T13:42:31.154Z,140.00
2024-04-01T13:44:04.036Z,141.00
2024-04-01T13:45:24.860Z,142.00
2024-04-01T13:46:38.964Z,144.17
2024-04-01T13:48:00.903Z,148.50
2024-04-01T13:49:35.073Z,157.50
2024-04-01T13:50:49.115Z,177.00
2024-04-01T13:52:10.229Z,168.17
2024-04-01T13:53:35.838Z,166.67
2024-04-01T13:54:40.026Z,163.17
2024-04-01T13:55:58.754Z,152.83
2024-04-01T13:57:22.797Z,139.83
2024-04-01T13:58:42.067Z,142.83
2024-04-01T13:59:49.455Z,139.33
2024-04-01T14:01:04.095Z,136.00
2024-04-01T14:02:23.608Z,137.00
2024-04-01T14:03:38.193Z,140.83
2024-04-01T14:04:53.436Z,143.33
2024-04-01T14:06:20.546Z,140.00
2024-04-01T14:07:33.757Z,138.17
2024-04-01T14:08:44.482Z,137.67
2024-04-01T14:10:03.153Z,137.50